Time;durP1;ratioP1;P1;durP2;ratioP2;P2;SDS_P1;SDS_P2;PMS_P1;PMS_P2;Temp;Humidity;BMP_temperature;BMP_pressure;BME280_temperature;BME280_humidity;BME280_pressure;Samples;Min_cycle;Max_cycle;Signal;HPM_P1;HPM_P2
2022/05/31 00:01:20;;;;;;;5.50;3.63;;;;;;;16.00;100.00;101292.09;5030897;28;20301;-53
2022/05/31 00:03:45;;;;;;;6.22;3.58;;;;;;;15.97;100.00;101297.94;5022623;28;20053;-53
2022/05/31 00:06:11;;;;;;;8.15;3.20;;;;;;;16.07;100.00;101292.06;5016753;28;20038;-51
2022/05/31 00:08:36;;;;;;;8.20;3.67;;;;;;;15.76;100.00;101294.53;5026406;28;20061;-52
2022/05/31 00:11:03;;;;;;;15.73;4.20;;;;;;;15.79;100.00;101290.59;5030652;28;20053;-54
2022/05/31 00:13:29;;;;;;;6.03;3.42;;;;;;;15.95;100.00;101286.56;5013858;28;20025;-52
2022/05/31 00:15:55;;;;;;;6.80;3.88;;;;;;;15.77;100.00;101288.09;5020123;28;20155;-50
2022/05/31 00:18:20;;;;;;;12.27;4.00;;;;;;;15.78;100.00;101286.25;5019410;28;20043;-52
2022/05/31 00:20:45;;;;;;;6.80;3.73;;;;;;;15.65;100.00;101294.44;5024688;28;20091;-52
2022/05/31 00:23:11;;;;;;;6.70;3.57;;;;;;;15.78;100.00;101286.25;5022710;28;20030;-55
2022/05/31 00:25:38;;;;;;;7.68;3.40;;;;;;;15.68;100.00;101288.59;5020191;28;20056;-54
2022/05/31 00:28:04;;;;;;;4.65;3.20;;;;;;;15.60;100.00;101289.72;5023440;28;20035;-50
2022/05/31 00:30:30;;;;;;;6.80;3.50;;;;;;;15.67;100.00;101290.47;4998090;28;20080;-50
2022/05/31 00:32:56;;;;;;;6.20;3.38;;;;;;;15.60;100.00;101284.31;5027024;28;20047;-54
2022/05/31 00:35:26;;;;;;;7.13;3.65;;;;;;;15.56;100.00;101288.47;5012841;28;20042;-54
2022/05/31 00:37:53;;;;;;;9.93;3.60;;;;;;;15.49;100.00;101285.84;5023216;28;20034;-53
2022/05/31 00:40:21;;;;;;;8.07;3.93;;;;;;;15.39;100.00;101285.47;5016494;28;20315;-52
2022/05/31 00:42:49;;;;;;;7.63;4.33;;;;;;;15.38;100.00;101286.53;5025468;28;20063;-54
2022/05/31 00:45:14;;;;;;;16.93;4.40;;;;;;;15.32;100.00;101288.19;5015718;28;20279;-51
2022/05/31 00:47:40;;;;;;;13.38;5.57;;;;;;;15.01;100.00;101285.28;5024565;28;20321;-52
2022/05/31 00:50:13;;;;;;;11.45;4.75;;;;;;;15.10;100.00;101293.09;5005658;28;20034;-53
2022/05/31 00:52:47;;;;;;;9.57;4.07;;;;;;;15.24;100.00;101296.53;5017975;28;20038;-52
2022/05/31 00:55:19;;;;;;;10.13;4.50;;;;;;;15.14;100.00;101292.47;5020122;28;20272;-50
2022/05/31 00:57:54;;;;;;;7.23;4.23;;;;;;;15.15;100.00;101293.28;5024859;28;20335;-53
2022/05/31 01:00:20;;;;;;;8.23;4.83;;;;;;;15.01;100.00;101287.97;5008680;28;20306;-49
2022/05/31 01:02:47;;;;;;;9.83;5.47;;;;;;;15.08;100.00;101297.88;5032179;28;20279;-50
2022/05/31 01:05:13;;;;;;;11.98;4.93;;;;;;;15.13;100.00;101296.19;5020160;28;20282;-52
2022/05/31 01:07:39;;;;;;;9.67;4.97;;;;;;;15.17;100.00;101288.50;5027732;28;20038;-49
2022/05/31 01:10:11;;;;;;;12.25;5.00;;;;;;;15.23;100.00;101279.56;5022104;28;20275;-49
2022/05/31 01:13:07;;;;;;;12.77;4.70;;;;;;;15.23;100.00;101278.72;5036658;28;20060;-51
2022/05/31 01:16:04;;;;;;;13.30;4.87;;;;;;;15.10;100.00;101279.63;5023528;28;20271;-50
2022/05/31 01:18:50;;;;;;;8.90;4.72;;;;;;;14.94;100.00;101276.38;5031276;28;20370;-50
2022/05/31 01:21:34;;;;;;;9.68;5.03;;;;;;;14.95;100.00;101277.22;5021534;28;20093;-50
2022/05/31 01:24:15;;;;;;;7.57;5.07;;;;;;;15.05;100.00;101283.81;5008753;28;20039;-52
2022/05/31 01:26:51;;;;;;;11.73;4.93;;;;;;;14.91;100.00;101284.88;5015046;28;20294;-50
2022/05/31 01:29:24;;;;;;;7.07;4.53;;;;;;;14.98;100.00;101277.59;5019948;28;20317;-51
2022/05/31 01:32:00;;;;;;;9.70;5.70;;;;;;;14.96;100.00;101284.25;5026011;28;20299;-48
2022/05/31 01:34:41;;;;;;;10.37;5.47;;;;;;;14.96;100.00;101279.69;5011898;28;20283;-48
2022/05/31 01:37:07;;;;;;;10.30;5.93;;;;;;;14.96;100.00;101279.69;5008908;28;20362;-51
2022/05/31 01:39:42;;;;;;;13.40;5.20;;;;;;;14.89;100.00;101281.59;5019486;28;20259;-50
2022/05/31 01:42:40;;;;;;;9.33;5.47;;;;;;;14.91;100.00;101277.66;5009857;28;20067;-48
2022/05/31 01:45:22;;;;;;;10.00;5.30;;;;;;;14.95;100.00;101272.63;5032217;28;20339;-50
2022/05/31 01:47:48;;;;;;;10.77;5.67;;;;;;;15.02;100.00;101272.63;5002819;28;20303;-53
2022/05/31 01:50:18;;;;;;;9.70;5.57;;;;;;;14.96;100.00;101270.78;5018985;28;20303;-50
2022/05/31 01:52:46;;;;;;;10.00;5.47;;;;;;;15.15;100.00;101267.19;5008965;28;20347;-50
2022/05/31 01:55:13;;;;;;;13.53;5.83;;;;;;;15.09;100.00;101267.22;5023715;28;20269;-51
2022/05/31 01:57:42;;;;;;;8.17;5.30;;;;;;;15.11;100.00;101265.13;5016640;28;20375;-51
2022/05/31 02:00:11;;;;;;;8.80;5.00;;;;;;;15.15;100.00;101264.47;5014680;28;20440;-48
2022/05/31 02:02:42;;;;;;;11.13;5.30;;;;;;;15.19;100.00;101256.78;5025616;28;20317;-54
2022/05/31 02:05:08;;;;;;;16.83;5.80;;;;;;;15.08;100.00;101260.97;5014132;28;20290;-53
2022/05/31 02:07:34;;;;;;;;;;;;;;;15.14;100.00;101262.00;5011322;28;20371;-47
2022/05/31 02:10:01;;;;;;;11.70;5.60;;;;;;;15.07;100.00;101270.09;5010457;28;19917;-51
2022/05/31 02:12:34;;;;;;;9.77;5.63;;;;;;;15.09;100.00;101267.22;5010259;28;20286;-51
2022/05/31 02:15:13;;;;;;;10.97;5.23;;;;;;;15.18;100.00;101260.50;5017807;28;20275;-53
2022/05/31 02:17:53;;;;;;;9.23;5.40;;;;;;;15.17;100.00;101257.00;5004317;28;20271;-52
2022/05/31 02:20:43;;;;;;;7.63;5.30;;;;;;;15.43;100.00;101257.03;5011905;28;20267;-50
2022/05/31 02:23:09;;;;;;;13.52;5.63;;;;;;;15.47;100.00;101258.28;5010726;28;20268;-50
2022/05/31 02:25:35;;;;;;;13.32;5.32;;;;;;;15.27;100.00;101255.69;5014705;28;20057;-47
2022/05/31 02:28:02;;;;;;;9.93;5.67;;;;;;;15.05;100.00;101250.63;5014950;28;20038;-49
2022/05/31 02:30:27;;;;;;;10.87;5.50;;;;;;;15.13;100.00;101252.25;5010370;28;20275;-50
2022/05/31 02:32:54;;;;;;;14.90;5.00;;;;;;;15.22;100.00;101256.34;4991117;28;1012113;-49
2022/05/31 02:35:19;;;;;;;9.45;5.20;;;;;;;15.20;100.00;101255.72;5015762;28;20105;-50
2022/05/31 02:37:45;;;;;;;10.98;5.65;;;;;;;15.21;100.00;101257.38;5006558;28;20049;-49
2022/05/31 02:40:11;;;;;;;9.57;5.40;;;;;;;15.34;100.00;101249.22;5008935;28;20046;-52
2022/05/31 02:42:37;;;;;;;12.48;6.50;;;;;;;15.11;100.00;101254.34;5015990;28;20044;-49
2022/05/31 02:45:05;;;;;;;16.83;6.20;;;;;;;15.30;100.00;101242.63;5017360;28;20038;-52
2022/05/31 02:47:30;;;;;;;10.00;5.90;;;;;;;15.20;100.00;101244.97;5027697;28;20029;-49
2022/05/31 02:49:56;;;;;;;12.20;6.07;;;;;;;15.14;100.00;101241.28;5005747;28;20295;-52
2022/05/31 02:52:22;;;;;;;13.27;5.68;;;;;;;15.33;100.00;101247.59;5027501;28;20129;-49
2022/05/31 02:54:48;;;;;;;12.10;5.32;;;;;;;15.20;100.00;101244.97;5013950;28;20037;-53
2022/05/31 02:57:17;;;;;;;12.40;5.70;;;;;;;15.39;100.00;101243.19;5018969;28;20042;-51
2022/05/31 03:00:22;;;;;;;11.53;6.30;;;;;;;15.50;100.00;101252.47;5018393;28;20283;-52
2022/05/31 03:03:06;;;;;;;16.23;5.97;;;;;;;15.74;100.00;101241.91;5027305;28;20267;-51
2022/05/31 03:05:33;;;;;;;16.00;5.93;;;;;;;15.72;100.00;101244.00;5020378;28;20279;-54
2022/05/31 03:08:23;;;;;;;8.17;5.37;;;;;;;15.67;100.00;101241.09;5012396;28;20031;-54
2022/05/31 03:11:20;;;;;;;9.57;5.50;;;;;;;16.63;100.00;101246.25;5035026;28;20317;-52
2022/05/31 03:13:49;;;;;;;12.43;5.57;;;;;;;15.39;100.00;101232.41;5023166;28;20275;-51
2022/05/31 03:16:17;;;;;;;10.43;5.77;;;;;;;15.44;100.00;101245.22;5019772;28;20282;-52
2022/05/31 03:18:58;;;;;;;11.53;5.20;;;;;;;15.38;100.00;101240.72;5024036;28;20279;-52
2022/05/31 03:21:28;;;;;;;11.83;5.77;;;;;;;15.22;100.00;101236.66;5009204;28;20298;-52
2022/05/31 03:24:02;;;;;;;10.13;5.67;;;;;;;15.19;100.00;101227.13;5018740;28;20293;-50
2022/05/31 03:26:31;;;;;;;13.50;5.90;;;;;;;15.23;100.00;101236.47;5027281;28;20359;-49
2022/05/31 03:28:57;;;;;;;11.63;5.60;;;;;;;15.12;100.00;101234.44;5031219;28;20318;-53
2022/05/31 03:31:23;;;;;;;9.07;5.60;;;;;;;15.10;100.00;101233.84;5031439;28;20294;-50
2022/05/31 03:33:49;;;;;;;;;;;;;;;15.05;100.00;101235.31;5023043;28;20272;-50
2022/05/31 03:36:15;;;;;;;10.07;5.83;;;;;;;15.05;100.00;101231.78;5002886;28;19928;-50
2022/05/31 03:38:49;;;;;;;10.53;6.17;;;;;;;15.13;100.00;101236.09;5014686;28;20030;-50
2022/05/31 03:41:15;;;;;;;10.45;6.18;;;;;;;14.96;100.00;101236.59;5014724;28;20331;-50
2022/05/31 03:43:44;;;;;;;9.73;6.03;;;;;;;14.77;100.00;101238.34;5010756;28;20052;-49
2022/05/31 03:46:15;;;;;;;11.47;6.03;;;;;;;14.36;100.00;101236.78;5020712;28;20279;-52
2022/05/31 03:48:57;;;;;;;13.17;6.40;;;;;;;14.89;100.00;101236.66;5013779;28;20292;-52
2022/05/31 03:51:23;;;;;;;10.33;5.80;;;;;;;14.89;100.00;101241.19;5010795;28;20302;-52
2022/05/31 03:53:52;;;;;;;13.23;5.70;;;;;;;14.98;100.00;101239.91;5010043;28;20276;-52
2022/05/31 03:56:27;;;;;;;10.40;6.07;;;;;;;15.12;100.00;101239.84;5005185;28;20268;-50
2022/05/31 03:58:53;;;;;;;10.37;6.43;;;;;;;14.85;100.00;101245.34;5014024;28;20280;-51
2022/05/31 04:01:20;;;;;;;11.10;6.20;;;;;;;14.67;100.00;101238.75;5014733;28;20281;-50
2022/05/31 04:03:48;;;;;;;10.50;6.50;;;;;;;14.75;100.00;101238.53;5014632;28;20268;-49
2022/05/31 04:06:14;;;;;;;9.88;6.03;;;;;;;14.76;100.00;101240.22;5008992;28;20275;-49
2022/05/31 04:08:39;;;;;;;10.85;6.53;;;;;;;14.82;100.00;101240.41;5014317;28;20095;-52
2022/05/31 04:11:07;;;;;;;12.37;6.40;;;;;;;14.93;100.00;101245.09;4998977;28;20034;-52
2022/05/31 04:13:32;;;;;;;18.50;6.97;;;;;;;15.32;100.00;101239.69;5014258;28;20299;-55
2022/05/31 04:16:18;;;;;;;11.13;6.80;;;;;;;15.40;100.00;101236.75;5024875;28;20200;-51
2022/05/31 04:18:51;;;;;;;13.50;6.93;;;;;;;15.47;100.00;101242.91;5012330;28;20268;-51
2022/05/31 04:21:17;;;;;;;14.07;7.70;;;;;;;15.57;100.00;101228.97;5009227;28;20280;-52
2022/05/31 04:23:59;;;;;;;17.33;7.45;;;;;;;15.52;100.00;101234.19;5005507;28;20049;-52
2022/05/31 04:26:46;;;;;;;13.67;6.00;;;;;;;15.69;100.00;101234.47;5028375;28;20083;-51
2022/05/31 04:29:31;;;;;;;9.83;6.53;;;;;;;15.52;100.00;101234.19;5028336;28;20302;-49
2022/05/31 04:32:03;;;;;;;11.33;5.67;;;;;;;15.59;100.00;101234.16;5028911;28;20409;-51
2022/05/31 04:34:45;;;;;;;10.13;6.40;;;;;;;15.65;100.00;101243.19;5010145;28;20284;-48
2022/05/31 04:37:12;;;;;;;10.98;6.65;;;;;;;15.59;100.00;101234.16;5014057;28;20267;-55
2022/05/31 04:40:07;;;;;;;15.50;6.63;;;;;;;15.60;100.00;101236.59;5011743;28;20103;-50
2022/05/31 04:42:54;;;;;;;11.87;6.53;;;;;;;15.85;100.00;101237.66;4990011;28;20271;-49
2022/05/31 04:45:38;;;;;;;16.07;7.10;;;;;;;15.67;100.00;101231.16;5023059;28;20297;-53
2022/05/31 04:48:26;;;;;;;16.17;6.37;;;;;;;15.89;100.00;101233.50;5015870;28;20332;-49
2022/05/31 04:50:53;;;;;;;;;;;;;;;15.78;100.00;101230.44;5008917;28;20274;-51
2022/05/31 04:53:22;;;;;;;13.30;6.60;;;;;;;15.59;100.00;101234.16;5005291;28;19914;-51
2022/05/31 04:56:09;;;;;;;14.07;6.73;;;;;;;15.61;100.00;101235.56;5025369;28;20289;-52
2022/05/31 04:58:34;;;;;;;15.50;7.33;;;;;;;15.76;100.00;101239.81;5011215;28;20279;-54
2022/05/31 05:01:06;;;;;;;9.75;6.25;;;;;;;15.77;100.00;101236.06;5002333;28;20845;-51
2022/05/31 05:03:35;;;;;;;17.10;7.07;;;;;;;15.92;100.00;101238.44;5008820;28;20038;-50
2022/05/31 05:06:04;;;;;;;13.43;7.27;;;;;;;15.87;100.00;101230.97;5019843;28;20279;-54
2022/05/31 05:08:30;;;;;;;12.50;6.63;;;;;;;15.90;100.00;101229.75;5011118;28;20321;-50
2022/05/31 05:10:58;;;;;;;11.57;7.18;;;;;;;15.69;100.00;101229.06;5024823;28;20278;-55
2022/05/31 05:13:30;;;;;;;14.03;7.63;;;;;;;15.88;100.00;101235.38;5010475;28;20048;-53
2022/05/31 05:16:19;;;;;;;14.93;7.07;;;;;;;16.04;100.00;101230.47;5023430;28;20290;-52
2022/05/31 05:18:50;;;;;;;10.80;6.83;;;;;;;16.06;100.00;101233.75;5010293;28;20294;-47
2022/05/31 05:21:17;;;;;;;11.95;7.88;;;;;;;15.95;100.00;101229.09;5012896;28;20259;-52
2022/05/31 05:23:43;;;;;;;12.38;6.47;;;;;;;15.84;100.00;101226.03;5005798;28;20057;-50
2022/05/31 05:26:12;;;;;;;16.07;8.13;;;;;;;15.80;100.00;101222.13;5010999;28;20033;-52
2022/05/31 05:31:42;;;;;;;15.63;7.97;;;;;;;15.96;100.00;101222.66;5010233;28;20284;-53
2022/05/31 05:34:52;;;;;;;15.20;7.80;;;;;;;16.04;100.00;101219.66;5031989;28;20286;-52
2022/05/31 05:37:20;;;;;;;15.20;8.00;;;;;;;16.05;100.00;101221.31;5017061;28;20286;-51
2022/05/31 05:39:46;;;;;;;17.43;7.13;;;;;;;16.19;100.00;101216.59;5001550;28;20301;-49
2022/05/31 05:42:33;;;;;;;;;;;;;;;16.31;100.00;101216.69;5012281;28;20328;-50
2022/05/31 05:45:11;;;;;;;12.77;7.20;;;;;;;16.15;100.00;101221.66;5006763;28;19907;-52
2022/05/31 05:47:39;;;;;;;13.20;7.53;;;;;;;16.23;100.00;101225.91;5011959;28;20042;-53
2022/05/31 05:50:06;;;;;;;12.27;7.35;;;;;;;16.55;100.00;101230.31;5021244;28;20347;-50
2022/05/31 05:53:01;;;;;;;12.77;7.22;;;;;;;16.86;100.00;101232.03;5009548;28;20038;-51
2022/05/31 05:55:59;;;;;;;10.60;7.40;;;;;;;16.37;100.00;101228.47;5030970;28;20212;-49
2022/05/31 05:59:00;;;;;;;16.97;8.67;;;;;;;17.00;100.00;101227.28;5008428;28;20287;-50
2022/05/31 06:01:50;;;;;;;14.63;8.13;;;;;;;17.14;100.00;101227.13;5021732;28;20265;-51
2022/05/31 06:04:41;;;;;;;12.90;7.30;;;;;;;17.02;100.00;101224.38;5004706;28;20323;-49
2022/05/31 06:07:27;;;;;;;16.73;8.30;;;;;;;16.67;100.00;101225.84;5005521;28;20306;-49
2022/05/31 06:09:58;;;;;;;14.80;8.00;;;;;;;16.61;100.00;101222.16;5003512;28;20269;-52
2022/05/31 06:12:30;;;;;;;18.03;8.70;;;;;;;16.62;100.00;101236.50;5005104;28;20148;-49
2022/05/31 06:15:01;;;;;;;22.67;9.03;;;;;;;16.53;100.00;101229.72;5006947;28;20340;-50
2022/05/31 06:17:33;;;;;;;15.53;8.67;;;;;;;16.52;100.00;101228.09;5007230;28;20295;-51
2022/05/31 06:20:03;;;;;;;19.57;8.93;;;;;;;16.28;100.00;101231.47;5009498;28;20349;-52
2022/05/31 06:22:30;;;;;;;13.30;8.23;;;;;;;16.23;100.00;101231.28;5009170;28;20279;-49
2022/05/31 06:25:11;;;;;;;12.93;8.60;;;;;;;16.55;100.00;101235.72;5006960;28;20265;-48
2022/05/31 06:27:51;;;;;;;18.03;8.63;;;;;;;16.51;100.00;101226.44;5007829;28;20284;-51
2022/05/31 06:30:18;;;;;;;14.15;8.38;;;;;;;16.61;100.00;101224.84;5004207;28;20272;-49
2022/05/31 06:32:43;;;;;;;14.98;7.72;;;;;;;16.71;100.00;101223.47;5005517;28;20087;-52
2022/05/31 06:35:10;;;;;;;;;;;;;;;16.60;100.00;101235.88;5001507;28;20121;-50
2022/05/31 06:37:52;;;;;;;16.87;8.20;;;;;;;16.84;100.00;101236.81;4994667;28;19977;-52
2022/05/31 06:40:18;;;;;;;18.33;8.90;;;;;;;16.83;100.00;101239.75;4991009;28;20283;-53
2022/05/31 06:43:07;;;;;;;14.83;7.97;;;;;;;17.03;100.00;101231.41;5009764;28;20065;-49
2022/05/31 06:45:52;;;;;;;13.77;8.60;;;;;;;17.09;100.00;101229.69;5009637;28;20337;-52
2022/05/31 06:48:37;;;;;;;14.83;9.37;;;;;;;17.28;100.00;101233.97;5030156;28;20288;-55
2022/05/31 06:57:47;;;;;;;18.03;9.30;;;;;;;17.17;100.00;101230.16;5009523;28;20290;-55
2022/05/31 07:00:21;;;;;;;17.47;8.67;;;;;;;17.37;100.00;101226.34;5009466;28;20317;-50
2022/05/31 07:02:49;;;;;;;12.60;8.73;;;;;;;17.54;100.00;101226.50;5008651;28;20282;-51
2022/05/31 07:05:16;;;;;;;19.20;9.03;;;;;;;17.41;100.00;101222.13;5007670;28;20337;-50
2022/05/31 07:07:41;;;;;;;;;;;;;;;17.42;100.00;101222.94;5011109;28;20283;-47
2022/05/31 07:10:25;;;;;;;14.30;8.83;;;;;;;17.66;100.00;101214.88;5011255;28;19939;-50
2022/05/31 07:13:11;;;;;;;15.43;8.97;;;;;;;17.60;100.00;101209.34;5006894;28;20280;-52
2022/05/31 07:15:51;;;;;;;15.37;8.80;;;;;;;17.71;100.00;101215.81;5006123;28;20288;-50
2022/05/31 07:18:35;;;;;;;13.50;8.23;;;;;;;17.81;100.00;101215.25;5011581;28;20339;-52
2022/05/31 07:21:01;;;;;;;19.20;10.03;;;;;;;17.83;100.00;101218.53;5002729;28;20281;-55
2022/05/31 07:23:27;;;;;;;17.83;8.33;;;;;;;18.14;100.00;101218.44;5009532;28;20264;-54
2022/05/31 07:25:59;;;;;;;19.67;8.80;;;;;;;18.12;100.00;101215.16;5009691;28;20279;-51
2022/05/31 07:28:28;;;;;;;23.17;8.30;;;;;;;18.38;100.00;101216.50;5007967;28;20308;-50
2022/05/31 07:30:56;;;;;;;14.30;8.17;;;;;;;18.40;100.00;101219.78;5008139;28;20272;-53
2022/05/31 07:33:24;;;;;;;15.17;7.23;;;;;;;18.48;100.00;101221.31;4997160;28;20267;-52
2022/05/31 07:35:51;;;;;;;12.77;7.23;;;;;;;18.39;100.00;101223.56;5007097;28;20279;-54
2022/05/31 07:38:17;;;;;;;14.88;7.45;;;;;;;18.81;100.00;101222.53;5010490;28;20264;-52
2022/05/31 07:40:45;;;;;;;16.50;7.70;;;;;;;18.82;100.00;101226.03;5002942;28;20034;-51
2022/05/31 07:43:10;;;;;;;13.32;7.30;;;;;;;18.59;100.00;101220.47;5010918;28;20276;-51
2022/05/31 07:45:37;;;;;;;13.43;7.45;;;;;;;18.70;100.00;101221.50;5011290;28;20042;-52
2022/05/31 07:48:06;;;;;;;13.97;7.73;;;;;;;19.18;100.00;101218.63;5007638;28;20099;-56
2022/05/31 07:50:32;;;;;;;11.67;7.27;;;;;;;18.88;100.00;101215.06;5010681;28;20280;-52
2022/05/31 07:53:23;;;;;;;13.67;7.67;;;;;;;18.87;100.00;101212.59;5006564;28;20282;-51
2022/05/31 07:56:19;;;;;;;12.07;7.00;;;;;;;19.02;100.00;101207.50;5010777;28;20279;-54
2022/05/31 07:59:22;;;;;;;17.00;10.17;;;;;;;19.22;100.00;101210.78;5007628;28;20363;-54
2022/05/31 08:02:20;;;;;;;9.43;6.22;;;;;;;19.41;100.00;101208.69;5004491;28;20291;-54
2022/05/31 08:04:51;;;;;;;11.37;7.03;;;;;;;19.09;100.00;101212.75;5006378;28;20030;-50
2022/05/31 08:07:17;;;;;;;13.87;7.00;;;;;;;18.99;100.00;101215.28;5005866;28;20274;-49
2022/05/31 08:09:43;;;;;;;21.92;10.70;;;;;;;18.83;100.00;101208.72;5010494;28;20039;-50
2022/05/31 08:12:10;;;;;;;14.73;6.57;;;;;;;19.40;100.00;101213.28;5007471;28;20054;-49
2022/05/31 08:14:35;;;;;;;15.63;7.50;;;;;;;19.06;100.00;101199.72;5006652;28;20048;-53
2022/05/31 08:17:03;;;;;;;13.35;7.35;;;;;;;19.44;100.00;101202.78;5009424;28;20272;-54
2022/05/31 08:19:30;;;;;;;15.23;7.63;;;;;;;19.61;100.00;101209.03;5011573;28;20050;-53
2022/05/31 08:22:14;;;;;;;12.07;7.00;;;;;;;19.81;100.00;101207.66;5008193;28;20343;-52
2022/05/31 08:24:40;;;;;;;14.03;7.27;;;;;;;19.45;100.00;101196.28;5010914;28;20279;-51
2022/05/31 08:27:05;;;;;;;12.70;6.65;;;;;;;19.55;100.00;101198.34;5011326;28;20267;-51
2022/05/31 08:29:31;;;;;;;14.02;7.63;;;;;;;19.62;100.00;101193.56;5006643;28;20058;-52
2022/05/31 08:31:58;;;;;;;15.23;7.20;;;;;;;20.18;100.00;101195.44;5019491;28;20057;-52
2022/05/31 08:34:29;;;;;;;11.97;6.97;;;;;;;19.85;100.00;101199.88;5018460;28;20307;-51
2022/05/31 08:36:55;;;;;;;12.27;7.27;;;;;;;20.13;100.00;101193.50;5016758;28;20113;-52
2022/05/31 08:39:21;;;;;;;12.38;6.57;;;;;;;19.70;100.00;101190.41;5020320;28;20030;-50
2022/05/31 08:41:49;;;;;;;11.10;6.75;;;;;;;19.75;100.00;101192.41;5018067;28;20040;-50
2022/05/31 08:44:35;;;;;;;15.83;7.33;;;;;;;20.30;97.44;101198.88;5018467;28;20069;-52
2022/05/31 08:47:20;;;;;;;11.97;7.17;;;;;;;20.99;95.25;101190.44;5013115;28;20057;-48
2022/05/31 08:53:26;;;;;;;12.03;7.10;;;;;;;21.74;89.30;101195.16;5026154;28;20039;-52
2022/05/31 08:59:19;;;;;;;13.73;6.93;;;;;;;20.78;83.14;101187.47;5028043;28;20042;-51
2022/05/31 09:01:52;;;;;;;13.73;6.73;;;;;;;21.12;80.79;101191.91;5022069;28;20052;-51
2022/05/31 09:04:25;;;;;;;10.97;5.83;;;;;;;21.45;79.05;101190.81;5022674;28;20045;-48
2022/05/31 09:06:58;;;;;;;11.50;6.43;;;;;;;21.73;79.71;101198.94;5025381;28;20035;-52
2022/05/31 09:09:26;;;;;;;9.17;6.27;;;;;;;21.83;76.75;101190.84;5030781;28;20034;-51
2022/05/31 09:12:14;;;;;;;13.00;6.93;;;;;;;21.91;74.59;101187.63;5031956;28;20038;-51
2022/05/31 09:14:45;;;;;;;10.30;6.40;;;;;;;22.26;70.85;101193.53;5027676;28;20034;-53
2022/05/31 09:17:23;;;;;;;10.73;5.93;;;;;;;22.34;69.39;101203.91;5029759;28;20105;-52
2022/05/31 09:19:58;;;;;;;9.57;6.10;;;;;;;22.42;68.13;101199.84;5028823;28;20068;-52
2022/05/31 09:22:24;;;;;;;9.20;5.30;;;;;;;22.94;63.98;101201.91;5030713;28;20026;-54
2022/05/31 09:24:50;;;;;;;15.75;5.38;;;;;;;23.19;60.27;101201.94;5026578;28;20044;-53
2022/05/31 09:27:40;;;;;;;11.95;6.10;;;;;;;22.91;61.69;101195.91;5031903;28;20038;-50
2022/05/31 09:30:10;;;;;;;9.83;5.33;;;;;;;22.93;61.63;101195.66;5025076;28;20052;-50
2022/05/31 09:33:04;;;;;;;8.80;5.30;;;;;;;22.52;61.06;101196.38;5030654;28;20084;-49
2022/05/31 09:35:42;;;;;;;11.73;5.57;;;;;;;22.77;58.58;101192.88;5028334;28;20037;-50
2022/05/31 09:38:39;;;;;;;8.83;4.50;;;;;;;21.81;57.95;101203.88;5030026;28;20057;-48
2022/05/31 09:41:13;;;;;;;12.57;4.05;;;;;;;21.84;63.49;101184.31;5029326;28;20068;-52
2022/05/31 09:44:06;;;;;;;9.03;4.03;;;;;;;22.18;59.30;101205.75;5029449;28;20049;-51
2022/05/31 09:46:41;;;;;;;10.07;4.90;;;;;;;23.40;51.84;101187.50;5024812;28;20030;-53
2022/05/31 09:49:33;;;;;;;6.77;4.23;;;;;;;24.61;50.35;101187.69;5019118;28;20046;-50
2022/05/31 09:51:59;;;;;;;13.67;4.67;;;;;;;24.91;49.93;101191.38;5019828;28;20064;-49
2022/05/31 09:57:29;;;;;;;9.27;4.57;;;;;;;26.73;41.99;101198.56;5033322;28;20030;-52
2022/05/31 10:00:15;;;;;;;8.73;4.50;;;;;;;27.10;37.77;101202.38;5016324;28;20073;-49
2022/05/31 10:03:02;;;;;;;8.43;4.18;;;;;;;27.17;37.47;101196.53;5032638;28;20054;-53
2022/05/31 10:05:28;;;;;;;11.53;4.50;;;;;;;27.25;36.22;101201.34;5027925;28;20054;-53
2022/05/31 10:07:54;;;;;;;9.23;3.80;;;;;;;26.93;34.99;101196.66;5023736;28;20060;-51
2022/05/31 10:10:27;;;;;;;10.07;4.20;;;;;;;28.62;33.32;101193.78;5024799;28;20064;-51
2022/05/31 10:12:59;;;;;;;9.13;3.88;;;;;;;29.27;33.26;101191.69;5026677;28;20098;-48
2022/05/31 10:15:49;;;;;;;9.18;4.45;;;;;;;29.87;32.30;101197.84;5026266;28;20029;-54
2022/05/31 10:18:28;;;;;;;8.43;4.40;;;;;;;29.39;32.58;101193.84;5024145;28;20037;-50
2022/05/31 10:21:03;;;;;;;7.32;4.20;;;;;;;29.61;32.15;101192.22;5024589;28;20061;-50
2022/05/31 10:23:37;;;;;;;7.47;4.60;;;;;;;29.01;33.77;101192.31;5025713;28;20111;-50
2022/05/31 10:26:25;;;;;;;8.38;4.60;;;;;;;29.72;32.71;101187.25;5029142;28;20125;-50
2022/05/31 10:29:54;;;;;;;10.23;5.53;;;;;;;29.90;32.07;101199.16;5025578;28;20034;-50
2022/05/31 10:32:54;;;;;;;9.95;5.10;;;;;;;30.69;30.23;101199.38;5019584;28;20057;-51
2022/05/31 10:35:20;;;;;;;7.50;4.90;;;;;;;31.82;28.18;101193.94;5031824;28;20049;-52
2022/05/31 10:37:59;;;;;;;9.40;4.82;;;;;;;31.97;28.49;101202.81;5026243;28;20027;-51
2022/05/31 10:40:34;;;;;;;9.77;5.07;;;;;;;32.24;28.73;101198.78;5024717;28;20033;-48
2022/05/31 10:43:11;;;;;;;7.68;4.80;;;;;;;32.08;29.21;101204.06;5027563;28;20030;-52
2022/05/31 10:45:38;;;;;;;9.95;5.03;;;;;;;30.05;29.53;101197.94;5027411;28;20365;-52
2022/05/31 10:48:04;;;;;;;7.28;4.43;;;;;;;29.22;30.17;101189.06;5026851;28;20098;-51
2022/05/31 10:50:47;;;;;;;9.15;4.40;;;;;;;29.48;29.15;101189.25;5028580;28;20037;-52
2022/05/31 10:53:18;;;;;;;6.60;4.05;;;;;;;29.77;29.84;101196.19;5024030;28;20122;-53
2022/05/31 10:55:53;;;;;;;10.07;4.63;;;;;;;29.74;30.79;101187.72;5022835;28;20040;-52
2022/05/31 10:58:41;;;;;;;8.40;4.28;;;;;;;29.69;30.78;101183.19;5030807;28;20061;-52
2022/05/31 11:01:23;;;;;;;6.68;4.50;;;;;;;29.11;30.81;101182.22;5016183;28;20106;-54
2022/05/31 11:04:27;;;;;;;11.15;4.30;;;;;;;28.44;31.64;101170.78;5025379;28;20068;-54
2022/05/31 11:07:14;;;;;;;8.40;4.43;;;;;;;29.75;28.96;101173.66;5027820;28;20093;-52
2022/05/31 11:13:18;;;;;;;8.80;4.13;;;;;;;31.29;29.38;101177.53;5044724;28;20038;-55
2022/05/31 11:16:13;;;;;;;9.40;5.10;;;;;;;32.38;26.50;101181.94;5026245;28;20102;-54
2022/05/31 11:18:49;;;;;;;6.68;4.47;;;;;;;32.77;25.90;101169.91;5024904;28;20038;-53
2022/05/31 11:21:22;;;;;;;;;;;;;;;33.74;26.29;101175.22;5026860;28;20093;-53
2022/05/31 11:23:57;;;;;;;9.77;4.50;;;;;;;35.07;24.40;101185.91;5026157;28;19980;-50
2022/05/31 11:26:38;;;;;;;7.80;4.03;;;;;;;34.66;23.49;101182.38;5012195;28;20053;-54
2022/05/31 11:29:19;;;;;;;9.60;3.75;;;;;;;32.99;25.15;101168.72;5023947;28;20050;-53
2022/05/31 11:32:12;;;;;;;6.85;3.75;;;;;;;31.38;26.13;101173.94;5023972;28;20109;-52
2022/05/31 11:34:48;;;;;;;5.93;3.92;;;;;;;30.38;27.84;101167.16;5025743;28;20034;-51
2022/05/31 11:37:22;;;;;;;9.68;4.22;;;;;;;30.98;27.40;101173.03;5023578;28;20041;-56
2022/05/31 11:40:04;;;;;;;9.20;4.28;;;;;;;30.58;28.30;101164.91;5029595;28;20044;-55
2022/05/31 11:42:54;;;;;;;10.68;3.95;;;;;;;31.49;27.74;101161.38;5023984;28;20080;-53
2022/05/31 11:45:30;;;;;;;11.13;4.13;;;;;;;31.73;26.92;101165.50;5024166;28;20038;-50
2022/05/31 11:48:26;;;;;;;7.13;4.03;;;;;;;31.97;26.80;101164.09;5039594;28;20045;-52
2022/05/31 11:50:55;;;;;;;8.88;3.78;;;;;;;30.39;28.60;101155.00;5024952;28;20073;-54
2022/05/31 11:53:49;;;;;;;7.35;3.85;;;;;;;32.03;27.43;101171.06;5025564;28;20068;-52
2022/05/31 11:56:33;;;;;;;8.13;4.30;;;;;;;32.95;25.82;101167.81;5027719;28;20053;-53
2022/05/31 11:59:14;;;;;;;8.57;4.53;;;;;;;33.05;24.83;101175.66;5029886;28;20026;-52
2022/05/31 12:02:05;;;;;;;8.77;4.20;;;;;;;33.23;24.98;101169.94;5027225;28;20037;-50
2022/05/31 12:04:35;;;;;;;12.80;3.40;;;;;;;33.33;25.22;101170.31;5012811;28;20042;-53
2022/05/31 12:07:16;;;;;;;9.05;4.03;;;;;;;31.87;26.29;101166.13;5026447;28;20037;-51
2022/05/31 12:09:51;;;;;;;8.13;3.65;;;;;;;31.66;26.79;101156.94;5024941;28;20090;-52
2022/05/31 12:12:30;;;;;;;8.27;4.90;;;;;;;31.47;26.28;101166.44;5028089;28;20034;-51
2022/05/31 12:15:20;;;;;;;8.85;4.40;;;;;;;31.28;27.21;101159.34;5027558;28;20029;-52